createdAt,value
2018-12-08T00:00:43.554Z,8.03
2018-12-08T00:01:54.099Z,8.01
2018-12-08T00:03:04.101Z,8.1
2018-12-08T00:04:14.039Z,8.1
2018-12-08T00:05:24.333Z,8.09
2018-12-08T00:06:34.481Z,8.14
2018-12-08T00:07:44.562Z,8.17
2018-12-08T00:08:54.644Z,8.13
2018-12-08T00:10:04.699Z,8.16
2018-12-08T00:11:14.540Z,8.11
2018-12-08T00:12:24.618Z,8.16
2018-12-08T00:13:34.767Z,8.14
2018-12-08T00:14:45.055Z,8.07
2018-12-08T00:15:55.136Z,8.06
2018-12-08T00:17:04.892Z,8.11
2018-12-08T00:18:14.695Z,8.13
2018-12-08T00:19:24.788Z,8.1
2018-12-08T00:20:34.862Z,8.13
2018-12-08T00:21:45.147Z,8.16
2018-12-08T00:22:55.573Z,8.1
2018-12-08T00:24:05.644Z,8.16
2018-12-08T00:25:15.713Z,8.06
2018-12-08T00:26:25.790Z,8.11
2018-12-08T00:27:35.887Z,8.07
2018-12-08T00:28:45.951Z,8.13
2018-12-08T00:29:56.002Z,8.09
2018-12-08T00:31:08.566Z,8.13
2018-12-08T00:32:18.639Z,8.17
2018-12-08T00:33:28.710Z,8.04
2018-12-08T00:34:38.829Z,8.03
2018-12-08T00:35:48.887Z,8.01
2018-12-08T00:36:58.948Z,8.03
2018-12-08T00:38:09.122Z,8.04
2018-12-08T00:39:19.238Z,8.03
2018-12-08T00:40:29.102Z,8.06
2018-12-08T00:41:39.191Z,7.95
2018-12-08T00:42:49.257Z,7.98
2018-12-08T00:43:59.458Z,7.95
2018-12-08T00:45:09.271Z,7.98
2018-12-08T00:46:19.605Z,7.93
2018-12-08T00:47:29.410Z,7.96
2018-12-08T00:48:39.261Z,7.91
2018-12-08T00:49:49.322Z,7.89
2018-12-08T00:50:59.368Z,7.96
2018-12-08T00:52:09.407Z,7.92
2018-12-08T00:53:19.472Z,7.83
2018-12-08T00:54:29.597Z,7.86
2018-12-08T00:55:39.670Z,7.92
2018-12-08T00:56:49.486Z,7.89
2018-12-08T00:57:59.551Z,7.89
2018-12-08T00:59:09.634Z,7.89
2018-12-08T01:00:19.487Z,7.89
2018-12-08T01:01:29.296Z,7.82
2018-12-08T01:02:39.360Z,7.92
2018-12-08T01:03:49.464Z,7.86
2018-12-08T01:04:59.518Z,7.8
2018-12-08T01:06:09.576Z,7.78
2018-12-08T01:07:19.375Z,7.86
2018-12-08T01:08:29.429Z,7.85
2018-12-08T01:09:39.233Z,7.88
2018-12-08T01:10:49.039Z,7.85
2018-12-08T01:11:58.839Z,7.85
2018-12-08T01:13:08.911Z,7.88
2018-12-08T01:14:18.960Z,7.77
2018-12-08T01:15:29.082Z,7.75
2018-12-08T01:16:38.882Z,7.7
2018-12-08T01:17:48.944Z,7.64
2018-12-08T01:18:58.737Z,7.59
2018-12-08T01:20:08.812Z,7.56
2018-12-08T01:21:18.926Z,7.59
2018-12-08T01:22:29.067Z,7.63
2018-12-08T01:23:39.116Z,7.59
2018-12-08T01:24:49.188Z,7.54
2018-12-08T01:25:59.247Z,7.52
2018-12-08T01:27:09.325Z,7.52
2018-12-08T01:28:18.873Z,7.51
2018-12-08T01:29:29.009Z,7.49
2018-12-08T01:30:38.797Z,7.52
2018-12-08T01:31:48.842Z,7.48
2018-12-08T01:32:59.430Z,7.48
2018-12-08T01:34:09.500Z,7.49
2018-12-08T01:35:21.034Z,7.51
2018-12-08T01:36:30.840Z,7.51
2018-12-08T01:37:40.883Z,7.48
2018-12-08T01:38:50.998Z,7.45
2018-12-08T01:40:01.051Z,7.55
2018-12-08T01:41:11.093Z,7.44
2018-12-08T01:42:20.861Z,7.51
2018-12-08T01:43:30.924Z,7.48
2018-12-08T01:44:40.730Z,7.51
2018-12-08T01:45:50.824Z,7.56
2018-12-08T01:47:01.273Z,7.55
2018-12-08T01:48:11.810Z,7.58
2018-12-08T01:49:21.783Z,7.52
2018-12-08T01:50:31.873Z,7.54
2018-12-08T01:51:41.944Z,7.59
2018-12-08T01:52:51.998Z,7.54
2018-12-08T01:54:03.271Z,7.54
2018-12-08T01:55:13.190Z,7.48
2018-12-08T01:56:23.289Z,7.47
2018-12-08T01:57:33.341Z,7.54
2018-12-08T01:58:43.402Z,7.52
2018-12-08T01:59:53.465Z,7.54
2018-12-08T02:01:04.236Z,7.52
2018-12-08T02:02:14.311Z,7.59
2018-12-08T02:03:24.399Z,7.64
2018-12-08T02:04:34.460Z,7.74
2018-12-08T02:05:44.520Z,7.73
2018-12-08T02:06:54.586Z,7.75
2018-12-08T02:08:04.569Z,7.77
2018-12-08T02:09:14.636Z,7.77
2018-12-08T02:10:24.675Z,7.75
2018-12-08T02:11:34.769Z,7.77
2018-12-08T02:12:44.563Z,7.86
2018-12-08T02:13:54.419Z,7.8
2018-12-08T02:15:04.475Z,7.85
2018-12-08T02:16:14.277Z,7.78
2018-12-08T02:17:24.339Z,7.89
2018-12-08T02:18:34.396Z,7.91
2018-12-08T02:19:44.271Z,7.89
2018-12-08T02:20:54.337Z,7.92
2018-12-08T02:22:04.129Z,7.96
2018-12-08T02:23:13.933Z,8.01
2018-12-08T02:24:23.976Z,7.98
2018-12-08T02:25:34.030Z,8.07
2018-12-08T02:26:43.575Z,8.06
2018-12-08T02:27:53.637Z,8.01
2018-12-08T02:29:03.702Z,7.98
2018-12-08T02:30:13.528Z,7.92
2018-12-08T02:31:23.659Z,8.04
2018-12-08T02:32:33.700Z,7.96
2018-12-08T02:33:43.757Z,8.09
2018-12-08T02:34:53.823Z,8.04
2018-12-08T02:36:03.670Z,8.11
2018-12-08T02:37:13.747Z,8.06
2018-12-08T02:38:23.554Z,8.04
2018-12-08T02:39:33.365Z,8.01
2018-12-08T02:40:43.583Z,8.06
2018-12-08T02:41:53.695Z,7.96
2018-12-08T02:43:03.504Z,8.01
2018-12-08T02:44:13.553Z,7.95
2018-12-08T02:45:23.633Z,8.01
2018-12-08T02:46:33.710Z,8.07
2018-12-08T02:47:43.764Z,8.01
2018-12-08T02:48:53.868Z,8.04
2018-12-08T02:50:06.026Z,8.06
2018-12-08T02:51:15.569Z,7.96
2018-12-08T02:52:25.615Z,8.04
2018-12-08T02:53:35.679Z,8.13
2018-12-08T02:54:45.778Z,8.01
2018-12-08T02:55:55.837Z,7.99
2018-12-08T02:57:05.839Z,8.1
2018-12-08T02:58:15.634Z,8.13
2018-12-08T02:59:25.693Z,8.17
2018-12-08T03:00:35.522Z,8.24
2018-12-08T03:01:45.589Z,8.17
2018-12-08T03:02:55.460Z,8.13
2018-12-08T03:34:43.468Z,6.2
2018-12-08T03:35:53.606Z,6.26
2018-12-08T03:37:03.423Z,6.15
2018-12-08T03:38:13.457Z,6.21
2018-12-08T03:39:23.525Z,6.29
2018-12-08T03:40:32.857Z,6.4
2018-12-08T03:41:42.936Z,6.44
2018-12-08T03:42:52.501Z,6.44
2018-12-08T03:44:02.310Z,6.57
2018-12-08T03:45:12.403Z,6.67
2018-12-08T03:46:22.500Z,6.78
2018-12-08T03:47:32.567Z,6.97
2018-12-08T03:48:42.625Z,7.09
2018-12-08T03:49:52.697Z,7.21
2018-12-08T03:51:02.748Z,7.33
2018-12-08T03:52:12.551Z,7.55
2018-12-08T03:53:22.793Z,7.86
2018-12-08T03:54:32.838Z,7.98
2018-12-08T03:55:44.891Z,8.32
2018-12-08T03:56:55.064Z,8.54
2018-12-08T03:58:05.124Z,8.8
2018-12-08T03:59:15.211Z,9.11
2018-12-08T04:00:25.282Z,9.2
2018-12-08T04:01:35.348Z,9.32
2018-12-08T04:02:45.149Z,9.45
2018-12-08T04:03:54.679Z,9.67
2018-12-08T04:05:04.221Z,9.75
2018-12-08T04:06:14.299Z,9.85
2018-12-08T04:07:24.414Z,9.95
2018-12-08T04:08:34.472Z,10.05
2018-12-08T04:09:44.646Z,10.13
2018-12-08T04:10:54.770Z,10.21
2018-12-08T04:12:04.572Z,10.23
2018-12-08T04:13:14.378Z,10.35
2018-12-08T04:14:24.217Z,10.36
2018-12-08T04:15:34.266Z,10.51
2018-12-08T04:16:44.085Z,10.51
2018-12-08T04:17:54.137Z,10.59
2018-12-08T04:19:04.192Z,10.67
2018-12-08T04:20:14.241Z,10.76
2018-12-08T04:21:24.489Z,10.77
2018-12-08T04:22:34.554Z,10.87
2018-12-08T04:23:44.630Z,10.83
2018-12-08T04:24:54.692Z,10.88
2018-12-08T04:26:04.500Z,10.87
2018-12-08T04:27:14.563Z,10.92
2018-12-08T04:28:24.751Z,11.03
2018-12-08T04:29:34.816Z,11.05
2018-12-08T04:30:44.886Z,11.18
2018-12-08T04:31:54.441Z,11.12
2018-12-08T04:33:04.500Z,11.16
2018-12-08T04:34:14.290Z,11.15
2018-12-08T04:35:24.357Z,11.13
2018-12-08T04:36:34.440Z,11.21
2018-12-08T04:37:44.502Z,11.3
2018-12-08T04:38:54.565Z,11.24
2018-12-08T04:40:04.794Z,11.18
2018-12-08T04:41:14.847Z,11.3
2018-12-08T04:42:24.939Z,11.21
2018-12-08T04:43:35.000Z,11.34
2018-12-08T04:44:45.058Z,11.42
2018-12-08T04:45:55.116Z,11.41
2018-12-08T04:47:04.422Z,11.45
2018-12-08T04:48:14.484Z,11.43
2018-12-08T04:49:24.540Z,11.46
2018-12-08T04:50:34.095Z,11.45
2018-12-08T04:51:44.184Z,11.48
2018-12-08T04:52:54.247Z,11.49
2018-12-08T04:54:04.302Z,11.49
2018-12-08T04:55:14.363Z,11.49
2018-12-08T04:56:24.435Z,11.52
2018-12-08T04:57:34.506Z,11.49
2018-12-08T04:58:44.303Z,11.51
2018-12-08T04:59:54.367Z,11.51
2018-12-08T05:01:05.682Z,11.38
2018-12-08T05:02:15.748Z,11.45
2018-12-08T05:03:25.543Z,11.46
2018-12-08T05:04:35.340Z,11.49
2018-12-08T05:05:45.407Z,11.52
2018-12-08T05:06:55.210Z,11.49
2018-12-08T05:08:05.778Z,11.51
2018-12-08T05:09:15.828Z,11.59
2018-12-08T05:10:25.726Z,11.51
2018-12-08T05:11:35.772Z,11.48
2018-12-08T05:12:45.853Z,11.52
2018-12-08T05:13:55.915Z,11.56
2018-12-08T05:15:05.992Z,11.61
2018-12-08T05:16:15.530Z,11.57
2018-12-08T05:17:25.412Z,11.51
2018-12-08T05:18:35.462Z,11.56
2018-12-08T05:19:45.566Z,11.49
2018-12-08T05:20:55.716Z,11.57
2018-12-08T05:22:06.191Z,11.59
2018-12-08T05:23:16.230Z,11.51
2018-12-08T05:24:26.045Z,11.49
2018-12-08T05:25:36.112Z,11.48
2018-12-08T05:26:45.917Z,11.51
2018-12-08T05:27:55.984Z,11.41
2018-12-08T05:29:05.854Z,11.38
2018-12-08T05:30:15.904Z,11.42
2018-12-08T05:31:25.979Z,11.38
2018-12-08T05:32:36.029Z,11.41
2018-12-08T05:33:46.215Z,11.45
2018-12-08T05:34:56.277Z,11.45
2018-12-08T05:36:06.971Z,11.45
2018-12-08T05:37:16.761Z,11.48
2018-12-08T05:38:26.826Z,11.42
2018-12-08T05:39:36.880Z,11.51
2018-12-08T05:40:46.933Z,11.52
2018-12-08T05:41:56.978Z,11.57
2018-12-08T05:43:07.040Z,11.59
2018-12-08T05:44:17.087Z,11.59
2018-12-08T05:45:26.921Z,11.57
2018-12-08T05:46:36.732Z,11.49
2018-12-08T05:47:46.538Z,11.52
2018-12-08T05:48:56.387Z,11.52
2018-12-08T05:50:08.739Z,11.49
2018-12-08T05:51:18.536Z,11.45
2018-12-08T05:52:28.609Z,11.42
2018-12-08T05:53:40.015Z,11.38
2018-12-08T05:54:50.125Z,11.38
2018-12-08T05:56:00.979Z,11.35
2018-12-08T05:57:11.039Z,11.35
2018-12-08T05:58:21.105Z,11.31
2018-12-08T05:59:30.660Z,11.45
2018-12-08T06:00:40.697Z,11.45
2018-12-08T06:01:50.771Z,11.39
2018-12-08T06:03:01.313Z,11.35
2018-12-08T06:04:11.366Z,11.42
2018-12-08T06:05:21.432Z,11.38
2018-12-08T06:06:31.474Z,11.41
2018-12-08T06:07:41.534Z,11.39
2018-12-08T06:08:51.597Z,11.41
2018-12-08T06:10:01.662Z,11.38
2018-12-08T06:11:11.719Z,11.35
2018-12-08T06:12:21.812Z,11.3
2018-12-08T06:13:31.866Z,11.38
2018-12-08T06:14:42.662Z,11.39
2018-12-08T06:15:52.475Z,11.33
2018-12-08T06:17:02.277Z,11.33
2018-12-08T06:18:12.393Z,11.33
2018-12-08T06:19:22.457Z,11.31
2018-12-08T06:20:32.622Z,11.27
2018-12-08T06:21:42.680Z,11.3
2018-12-08T06:22:52.499Z,11.33
2018-12-08T06:24:03.657Z,11.27
2018-12-08T06:25:13.707Z,11.3
2018-12-08T06:26:23.507Z,11.34
2018-12-08T06:27:33.568Z,11.26
2018-12-08T06:28:43.831Z,11.3
2018-12-08T06:29:53.923Z,11.28
2018-12-08T06:31:03.734Z,11.28
2018-12-08T06:32:13.530Z,11.35
2018-12-08T06:33:23.593Z,11.34
2018-12-08T06:34:33.401Z,11.3
2018-12-08T06:35:43.568Z,11.26
2018-12-08T06:36:53.634Z,11.26
2018-12-08T06:38:03.683Z,11.24
2018-12-08T06:39:13.754Z,11.2
2018-12-08T06:40:31.545Z,11.26
2018-12-08T06:41:41.447Z,11.23
2018-12-08T06:42:51.508Z,11.3
2018-12-08T06:44:01.568Z,11.18
2018-12-08T06:45:12.926Z,11.26
2018-12-08T06:46:22.728Z,11.31
2018-12-08T06:47:32.825Z,11.34
2018-12-08T06:48:42.889Z,11.24
2018-12-08T06:49:52.927Z,11.28
2018-12-08T06:51:03.130Z,11.31
2018-12-08T06:52:12.961Z,11.35
2018-12-08T06:53:23.057Z,11.34
2018-12-08T06:54:33.140Z,11.26
2018-12-08T06:55:43.182Z,11.31
2018-12-08T06:56:53.244Z,11.33
2018-12-08T06:58:03.786Z,11.35
2018-12-08T06:59:13.842Z,11.33
2018-12-08T07:00:23.655Z,11.41
2018-12-08T07:01:33.470Z,11.39
2018-12-08T07:02:43.272Z,11.33
2018-12-08T07:03:53.325Z,11.41
2018-12-08T07:05:03.137Z,11.39
2018-12-08T07:06:13.213Z,11.38
2018-12-08T07:07:23.281Z,11.39
2018-12-08T07:08:33.343Z,11.35
2018-12-08T07:09:43.169Z,11.38
2018-12-08T07:10:53.026Z,11.38
2018-12-08T07:12:03.241Z,11.49
2018-12-08T07:13:13.304Z,11.51
2018-12-08T07:14:23.358Z,11.56
2018-12-08T07:15:33.152Z,11.56
2018-12-08T07:16:42.690Z,11.48
2018-12-08T07:17:52.769Z,11.48
2018-12-08T07:19:02.326Z,11.57
2018-12-08T07:20:12.133Z,11.66
2018-12-08T07:21:22.186Z,11.61
2018-12-08T07:22:32.260Z,11.71
2018-12-08T07:23:42.315Z,11.67
2018-12-08T07:24:52.396Z,11.79
2018-12-08T07:26:02.466Z,11.79
2018-12-08T07:27:12.634Z,11.84
2018-12-08T07:28:23.805Z,11.88
2018-12-08T07:29:33.608Z,11.86
2018-12-08T07:30:43.721Z,11.89
2018-12-08T07:31:53.530Z,11.89
2018-12-08T07:33:03.579Z,11.94
2018-12-08T07:34:13.207Z,11.94
2018-12-08T07:43:39.213Z,12.01
2018-12-08T07:44:49.291Z,12
2018-12-08T07:45:59.336Z,12
2018-12-08T07:47:09.015Z,12.01
2018-12-08T07:48:19.181Z,12.05
2018-12-08T07:49:29.284Z,12.04
2018-12-08T07:50:39.116Z,12.16
2018-12-08T07:51:49.325Z,12.11
2018-12-08T07:52:59.372Z,12.16
2018-12-08T07:54:09.876Z,12.19
2018-12-08T07:55:19.441Z,12.28
2018-12-08T07:56:29.490Z,12.25
2018-12-08T07:57:39.554Z,12.18
2018-12-08T07:58:49.606Z,12.29
2018-12-08T07:59:59.679Z,12.38
2018-12-08T08:01:12.465Z,12.25
2018-12-08T08:02:22.278Z,12.31
2018-12-08T08:03:32.364Z,12.31
2018-12-08T08:04:42.415Z,12.34
2018-12-08T08:05:52.475Z,12.29
2018-12-08T08:07:02.011Z,12.36
2018-12-08T08:08:12.178Z,12.43
2018-12-08T08:09:22.249Z,12.52
2018-12-08T08:10:32.322Z,12.43
2018-12-08T08:11:42.430Z,12.58
2018-12-08T08:12:52.506Z,12.51
2018-12-08T08:14:02.428Z,12.58
2018-12-08T08:15:12.490Z,12.56
2018-12-08T08:16:22.571Z,12.58
2018-12-08T08:17:32.671Z,12.59
2018-12-08T08:18:42.733Z,12.61
2018-12-08T08:19:52.552Z,12.62
2018-12-08T08:21:02.110Z,12.62
2018-12-08T08:22:12.168Z,12.56
2018-12-08T08:23:22.240Z,12.56
2018-12-08T08:24:32.320Z,12.56
2018-12-08T08:25:42.388Z,12.62
2018-12-08T08:26:52.450Z,12.56
2018-12-08T08:28:02.269Z,12.7
2018-12-08T08:29:12.344Z,12.63
2018-12-08T08:30:22.390Z,12.74
2018-12-08T08:31:32.451Z,12.77
2018-12-08T08:32:42.599Z,12.84
2018-12-08T08:33:52.689Z,12.91
2018-12-08T08:35:02.801Z,13.02
2018-12-08T08:36:12.854Z,13.11
2018-12-08T08:37:22.967Z,13.17
2018-12-08T08:38:33.081Z,13.27
2018-12-08T08:39:43.208Z,13.31
2018-12-08T08:40:53.399Z,13.17
2018-12-08T08:42:03.476Z,13.2
2018-12-08T08:43:13.529Z,13.14
2018-12-08T08:44:23.577Z,13.13
2018-12-08T08:45:33.627Z,13.14
2018-12-08T08:46:43.743Z,13.17
2018-12-08T08:47:53.555Z,13.16
2018-12-08T08:49:03.362Z,13.17
2018-12-08T08:50:13.444Z,13.2
2018-12-08T08:51:23.506Z,13.19
2018-12-08T08:52:33.567Z,13.17
2018-12-08T08:53:43.631Z,13.16
2018-12-08T08:54:53.706Z,13.28
2018-12-08T08:56:03.782Z,13.31
2018-12-08T08:57:13.576Z,13.29
2018-12-08T08:58:23.507Z,13.27
2018-12-08T08:59:33.587Z,13.21
2018-12-08T09:00:43.675Z,13.17
2018-12-08T09:01:53.727Z,13.1
2018-12-08T09:03:03.806Z,13.09
2018-12-08T09:04:14.004Z,12.98
2018-12-08T09:05:23.588Z,12.88
2018-12-08T09:06:33.393Z,12.78
2018-12-08T09:07:43.474Z,12.71
2018-12-08T09:08:53.039Z,12.56
2018-12-08T09:10:05.216Z,12.65
2018-12-08T09:11:15.007Z,12.62
2018-12-08T09:12:25.081Z,12.58
2018-12-08T09:13:35.153Z,12.61
2018-12-08T09:14:44.947Z,12.76
2018-12-08T09:15:55.105Z,12.76
2018-12-08T09:17:04.915Z,12.84
2018-12-08T09:18:14.995Z,12.81
2018-12-08T09:19:24.791Z,12.81
2018-12-08T09:20:34.855Z,12.73
2018-12-08T09:21:44.977Z,12.62
2018-12-08T09:22:54.773Z,12.61
2018-12-08T09:24:04.864Z,12.58
2018-12-08T09:25:14.671Z,12.51
2018-12-08T09:26:24.749Z,12.48
2018-12-08T09:27:34.863Z,12.44
2018-12-08T09:28:44.677Z,12.43
2018-12-08T09:29:54.785Z,12.4
2018-12-08T09:31:04.863Z,12.36
2018-12-08T09:32:14.687Z,12.43
2018-12-08T09:33:24.744Z,12.36
2018-12-08T09:34:34.792Z,12.41
2018-12-08T09:35:44.984Z,12.29
2018-12-08T09:36:55.070Z,12.31
2018-12-08T09:38:05.235Z,12.25
2018-12-08T09:39:15.419Z,12.31
2018-12-08T09:40:25.243Z,12.33
2018-12-08T09:41:35.330Z,12.2
2018-12-08T09:42:45.392Z,12.15
2018-12-08T09:43:55.448Z,12.16
2018-12-08T09:45:06.537Z,12.15
2018-12-08T09:46:16.587Z,12.18
2018-12-08T09:47:26.665Z,12.16
2018-12-08T09:48:36.477Z,12.18
2018-12-08T09:49:46.573Z,12.22
2018-12-08T09:50:56.699Z,12.11
2018-12-08T09:52:07.022Z,12.22
2018-12-08T09:53:16.845Z,12.19
2018-12-08T09:54:26.917Z,12.26
2018-12-08T09:55:36.994Z,12.33
2018-12-08T09:56:46.803Z,12.29
2018-12-08T09:57:56.886Z,12.34
2018-12-08T09:59:06.964Z,12.34
2018-12-08T10:00:17.048Z,12.37
2018-12-08T10:01:27.147Z,12.37
2018-12-08T10:02:37.294Z,12.44
2018-12-08T10:03:47.144Z,12.47
2018-12-08T10:04:57.214Z,12.48
2018-12-08T10:06:07.273Z,12.51
2018-12-08T10:07:17.075Z,12.55
2018-12-08T10:08:27.206Z,12.61
2018-12-08T10:09:37.355Z,12.55
2018-12-08T10:10:47.222Z,12.53
2018-12-08T10:11:57.300Z,12.55
2018-12-08T10:13:07.379Z,12.53
2018-12-08T10:14:17.445Z,12.52
2018-12-08T10:15:27.239Z,12.55
2018-12-08T10:16:37.363Z,12.52
2018-12-08T10:17:47.170Z,12.45
2018-12-08T10:18:56.999Z,12.53
2018-12-08T10:20:06.935Z,12.44
2018-12-08T10:21:17.101Z,12.55
2018-12-08T10:22:27.973Z,12.55
2018-12-08T10:23:38.277Z,12.56
2018-12-08T10:24:48.097Z,12.53
2018-12-08T10:25:58.203Z,12.62
2018-12-08T10:27:09.172Z,12.62
2018-12-08T10:28:19.411Z,12.65
2018-12-08T10:29:29.499Z,12.65
2018-12-08T10:30:39.308Z,12.65
2018-12-08T10:31:49.206Z,12.53
2018-12-08T10:32:59.397Z,12.55
2018-12-08T10:34:10.439Z,12.44
2018-12-08T10:35:20.533Z,12.48
2018-12-08T10:36:30.652Z,12.4
2018-12-08T10:37:40.790Z,12.4
2018-12-08T10:38:50.923Z,12.34
2018-12-08T10:40:01.036Z,12.25
2018-12-08T10:41:11.192Z,12.2
2018-12-08T10:42:21.083Z,12.23
2018-12-08T10:43:31.233Z,12.2
2018-12-08T10:44:41.294Z,12.16
2018-12-08T10:45:51.180Z,12.15
2018-12-08T10:47:01.322Z,12.2
2018-12-08T10:48:11.436Z,12.25
2018-12-08T10:49:21.248Z,12.22
2018-12-08T10:50:31.053Z,12.2
2018-12-08T10:51:40.877Z,12.2
2018-12-08T10:52:50.981Z,12.29
2018-12-08T10:54:01.062Z,12.19
2018-12-08T10:55:11.309Z,12.26
2018-12-08T10:56:21.402Z,12.31
2018-12-08T10:57:31.499Z,12.37
2018-12-08T10:58:41.588Z,12.26
2018-12-08T10:59:52.172Z,12.25
2018-12-08T11:01:02.391Z,12.34
2018-12-08T11:02:12.530Z,12.43
2018-12-08T11:03:22.686Z,12.44
2018-12-08T11:04:32.846Z,12.51
2018-12-08T11:05:42.933Z,12.53
2018-12-08T11:06:52.846Z,12.56
2018-12-08T11:08:04.728Z,12.58
2018-12-08T11:09:14.793Z,12.58
2018-12-08T11:10:24.849Z,12.63
2018-12-08T11:11:34.958Z,12.61
2018-12-08T11:12:44.770Z,12.65
2018-12-08T11:13:54.831Z,12.73
2018-12-08T11:15:05.618Z,12.61
2018-12-08T11:16:15.686Z,12.7
2018-12-08T11:17:25.786Z,12.73
2018-12-08T11:18:35.966Z,12.61
2018-12-08T11:19:46.051Z,12.77
2018-12-08T11:20:56.219Z,12.66
2018-12-08T11:22:06.292Z,12.73
2018-12-08T11:23:16.421Z,12.78
2018-12-08T11:24:26.594Z,12.74
2018-12-08T11:25:36.690Z,12.73
2018-12-08T11:26:46.782Z,12.76
2018-12-08T11:27:56.930Z,12.71
2018-12-08T11:29:08.179Z,12.89
2018-12-08T11:30:18.346Z,12.84
2018-12-08T11:31:28.434Z,12.89
2018-12-08T11:32:38.536Z,12.91
2018-12-08T11:33:48.365Z,12.98
2018-12-08T11:34:58.189Z,13.03
2018-12-08T11:36:10.638Z,13.06
2018-12-08T11:37:20.480Z,13.09
2018-12-08T11:38:30.583Z,13.1
2018-12-08T11:39:40.784Z,13.11
2018-12-08T11:40:50.886Z,13.11
2018-12-08T11:42:00.981Z,13.17
2018-12-08T11:43:11.112Z,13.1
2018-12-08T11:44:21.019Z,13.11
2018-12-08T11:45:31.102Z,13.17
2018-12-08T11:46:41.196Z,13.11
2018-12-08T11:47:51.304Z,13.11
2018-12-08T11:49:01.411Z,13.14
2018-12-08T11:50:11.604Z,13.14
2018-12-08T11:51:21.730Z,13.17
2018-12-08T11:52:31.994Z,13.11
2018-12-08T11:53:42.433Z,13.11
2018-12-08T11:54:52.584Z,13.1
2018-12-08T11:56:02.698Z,13.16
2018-12-08T11:57:12.881Z,13.11
2018-12-08T11:58:22.985Z,13.09
2018-12-08T11:59:33.190Z,13.13
2018-12-08T12:00:43.290Z,13.06
2018-12-08T12:01:53.395Z,12.96
2018-12-08T12:03:03.515Z,13.07
2018-12-08T12:04:13.629Z,13.09
2018-12-08T12:05:23.771Z,13.11
2018-12-08T12:06:33.902Z,13.17
2018-12-08T12:07:44.008Z,13.14
2018-12-08T12:08:53.843Z,13.14
2018-12-08T12:10:03.682Z,13.17
2018-12-08T12:11:13.841Z,13.16
2018-12-08T12:12:23.999Z,13.16
2018-12-08T12:13:34.928Z,13.2
2018-12-08T12:14:45.106Z,13.19
2018-12-08T12:15:55.204Z,13.16
2018-12-08T12:17:05.307Z,13.24
2018-12-08T12:18:15.130Z,13.2
2018-12-08T12:19:25.236Z,13.25
2018-12-08T12:20:35.112Z,13.28
2018-12-08T12:21:45.222Z,13.39
2018-12-08T12:22:55.066Z,13.36
2018-12-08T12:24:05.223Z,13.45
2018-12-08T12:25:15.323Z,13.36
2018-12-08T12:26:25.502Z,13.44
2018-12-08T12:27:35.984Z,13.51
2018-12-08T12:28:46.221Z,13.48
2018-12-08T12:29:56.358Z,13.48
2018-12-08T12:31:07.864Z,13.36
2018-12-08T12:32:17.975Z,13.37
2018-12-08T12:33:28.080Z,13.36
2018-12-08T12:34:38.182Z,13.32
2018-12-08T12:35:48.279Z,13.29
2018-12-08T12:36:58.373Z,13.31
2018-12-08T12:38:08.461Z,13.36
2018-12-08T12:39:18.569Z,13.29
2018-12-08T12:40:28.706Z,13.24
2018-12-08T12:41:38.826Z,13.25
2018-12-08T12:42:48.931Z,13.17
2018-12-08T12:43:59.033Z,13.16
2018-12-08T12:45:09.143Z,13.16
2018-12-08T12:46:19.304Z,13.1
2018-12-08T12:47:29.402Z,13.09
2018-12-08T12:48:40.332Z,13.21
2018-12-08T12:49:50.436Z,13.35
2018-12-08T12:51:01.294Z,13.53
2018-12-08T12:52:11.400Z,13.62
2018-12-08T12:53:21.503Z,13.68
2018-12-08T12:54:31.603Z,13.73
2018-12-08T12:55:41.704Z,13.78
2018-12-08T12:56:51.804Z,13.9
2018-12-08T12:58:01.953Z,13.94
2018-12-08T12:59:12.059Z,13.9
2018-12-08T13:00:22.178Z,13.86
2018-12-08T13:01:32.420Z,13.88
2018-12-08T13:02:42.624Z,13.9
2018-12-08T13:03:52.744Z,13.9
2018-12-08T13:05:02.847Z,13.84
2018-12-08T13:06:13.192Z,13.84
2018-12-08T13:07:23.270Z,13.76
2018-12-08T13:08:33.377Z,13.75
2018-12-08T13:09:43.490Z,13.73
2018-12-08T13:10:53.340Z,13.72
2018-12-08T13:12:03.188Z,13.68
2018-12-08T13:13:13.305Z,13.68
2018-12-08T13:14:23.411Z,13.62
2018-12-08T13:15:33.317Z,13.63
2018-12-08T13:16:43.411Z,13.62
2018-12-08T13:17:53.499Z,13.62
2018-12-08T13:19:04.280Z,13.57
2018-12-08T13:20:14.391Z,13.66
2018-12-08T13:21:24.481Z,13.6
2018-12-08T13:22:34.311Z,13.57
2018-12-08T13:23:44.409Z,13.47
2018-12-08T13:24:54.299Z,13.54
2018-12-08T13:26:04.389Z,13.51
2018-12-08T13:27:14.530Z,13.37
2018-12-08T13:28:24.325Z,13.36
2018-12-08T13:29:34.398Z,13.44
2018-12-08T13:30:44.505Z,13.31
2018-12-08T13:31:54.366Z,13.35
2018-12-08T13:33:04.457Z,13.32
2018-12-08T13:34:14.634Z,13.16
2018-12-08T13:35:24.495Z,13.2
2018-12-08T13:36:34.297Z,13.14
2018-12-08T13:37:43.835Z,13.1
2018-12-08T13:38:54.031Z,13.09
2018-12-08T13:40:04.103Z,13.09
2018-12-08T13:41:14.191Z,12.98
2018-12-08T13:42:24.253Z,13.03
2018-12-08T13:43:34.085Z,12.89
2018-12-08T13:44:43.698Z,12.88
2018-12-08T13:45:53.257Z,12.86
2018-12-08T13:47:03.734Z,12.92
2018-12-08T13:48:13.806Z,12.8
2018-12-08T13:49:23.925Z,12.81
2018-12-08T13:50:33.543Z,12.83
2018-12-08T13:51:43.610Z,12.73
2018-12-08T13:52:53.425Z,12.71
2018-12-08T13:54:03.293Z,12.59
2018-12-08T13:55:13.105Z,12.59
2018-12-08T13:56:23.191Z,12.62
2018-12-08T13:57:33.014Z,12.62
2018-12-08T13:58:43.093Z,12.55
2018-12-08T13:59:53.168Z,12.51
2018-12-08T14:01:02.983Z,12.36
2018-12-08T14:02:13.040Z,12.31
2018-12-08T14:03:22.865Z,12.38
2018-12-08T14:04:32.401Z,12.26
2018-12-08T14:05:42.216Z,12.34
2018-12-08T14:06:52.036Z,12.36
2018-12-08T14:08:01.912Z,12.2
2018-12-08T14:09:12.014Z,12.23
2018-12-08T14:10:22.073Z,12.23
2018-12-08T14:11:32.151Z,12.19
2018-12-08T14:12:42.229Z,12.22
2018-12-08T14:13:52.314Z,12.11
2018-12-08T14:15:02.393Z,12.08
2018-12-08T14:16:12.476Z,11.94
2018-12-08T14:17:22.550Z,11.95
2018-12-08T14:18:32.619Z,11.91
2018-12-08T14:19:42.762Z,11.84
2018-12-08T14:20:52.833Z,11.81
2018-12-08T14:22:02.906Z,11.73
2018-12-08T14:23:12.979Z,11.71
2018-12-08T14:24:22.797Z,11.68
2018-12-08T14:25:32.931Z,11.64
2018-12-08T14:26:42.751Z,11.63
2018-12-08T14:27:52.816Z,11.53
2018-12-08T14:29:06.137Z,11.53
2018-12-08T14:30:16.196Z,11.52
2018-12-08T14:31:26.006Z,11.42
2018-12-08T14:32:35.827Z,11.39
2018-12-08T14:33:45.935Z,11.33
2018-12-08T14:34:56.008Z,11.41
2018-12-08T14:36:06.186Z,11.21
2018-12-08T14:37:16.287Z,11.2
2018-12-08T14:38:26.362Z,11.31
2018-12-08T14:39:36.429Z,11.3
2018-12-08T14:40:46.255Z,11.27
2018-12-08T14:41:56.442Z,11.18
2018-12-08T14:43:07.307Z,11.12
2018-12-08T14:44:17.373Z,11.1
2018-12-08T14:45:27.456Z,11.09
2018-12-08T14:46:37.560Z,11.05
2018-12-08T14:47:47.638Z,11.03
2018-12-08T14:48:57.790Z,11.05
2018-12-08T14:50:08.134Z,11
2018-12-08T14:51:18.208Z,11.05
2018-12-08T14:52:28.325Z,11.02
2018-12-08T14:53:38.381Z,10.97
2018-12-08T14:54:48.448Z,10.9
2018-12-08T14:55:58.510Z,11.03
2018-12-08T14:57:08.601Z,10.95
2018-12-08T14:58:18.188Z,10.92
2018-12-08T14:59:28.253Z,10.88
2018-12-08T15:00:38.377Z,10.91
2018-12-08T15:01:48.478Z,10.91
2018-12-08T15:02:58.552Z,10.94
2018-12-08T15:04:09.015Z,10.88
2018-12-08T15:05:19.084Z,10.84
2018-12-08T15:06:28.718Z,10.8
2018-12-08T15:07:38.868Z,10.75
2018-12-08T15:08:48.929Z,10.7
2018-12-08T15:09:59.019Z,10.73
2018-12-08T15:11:11.780Z,10.87
2018-12-08T15:12:21.913Z,10.76
2018-12-08T15:13:32.004Z,10.77
2018-12-08T15:14:42.059Z,10.73
2018-12-08T15:15:51.891Z,10.76
2018-12-08T15:17:02.407Z,10.75
2018-12-08T15:18:12.463Z,10.75
2018-12-08T15:19:22.718Z,10.65
2018-12-08T15:20:32.898Z,10.66
2018-12-08T15:21:43.019Z,10.66
2018-12-08T15:22:53.086Z,10.66
2018-12-08T15:24:02.901Z,10.66
2018-12-08T15:25:12.981Z,10.65
2018-12-08T15:26:23.050Z,10.69
2018-12-08T15:27:33.200Z,10.69
2018-12-08T15:28:43.268Z,10.65
2018-12-08T15:29:53.401Z,10.69
2018-12-08T15:31:03.496Z,10.58
2018-12-08T15:32:13.588Z,10.59
2018-12-08T15:33:23.684Z,10.59
2018-12-08T15:34:33.776Z,10.63
2018-12-08T15:35:43.848Z,10.61
2018-12-08T15:36:53.911Z,10.65
2018-12-08T15:38:03.962Z,10.63
2018-12-08T15:39:13.785Z,10.66
2018-12-08T15:40:23.919Z,10.63
2018-12-08T15:41:34.062Z,10.61
2018-12-08T15:42:43.883Z,10.59
2018-12-08T15:43:53.689Z,10.65
2018-12-08T15:45:03.518Z,10.69
2018-12-08T15:46:13.583Z,10.61
2018-12-08T15:47:23.662Z,10.59
2018-12-08T15:48:33.788Z,10.77
2018-12-08T15:49:43.873Z,10.84
2018-12-08T15:50:53.936Z,10.79